createdAt,value
2022-11-02T00:01:43.704Z,101100.09
2022-11-02T00:04:10.631Z,101095.69
2022-11-02T00:06:37.213Z,101085.84
2022-11-02T00:09:03.793Z,101085.78
2022-11-02T00:11:30.343Z,101086.66
2022-11-02T00:13:56.991Z,101091.03
2022-11-02T00:16:25.395Z,101096.63
2022-11-02T00:18:55.958Z,101088.38
2022-11-02T00:21:24.750Z,101091.47
2022-11-02T00:23:51.841Z,101090.16
2022-11-02T00:26:18.675Z,101087.81
2022-11-02T00:28:45.480Z,101083.22
2022-11-02T00:31:12.023Z,101057.69
2022-11-02T00:33:38.602Z,101074.81
2022-11-02T00:36:05.257Z,101077.53
2022-11-02T00:38:32.287Z,101070.97
2022-11-02T00:40:59.235Z,101070.81
2022-11-02T00:43:25.855Z,101066.53
2022-11-02T00:45:52.372Z,101062.59
2022-11-02T00:48:18.870Z,101056.69
2022-11-02T00:50:45.442Z,101074.63
2022-11-02T00:53:11.925Z,101067.97
2022-11-02T00:55:38.417Z,101069.00
2022-11-02T00:58:05.236Z,101075.13
2022-11-02T01:00:32.312Z,101069.59
2022-11-02T01:03:02.530Z,101074.50
2022-11-02T01:05:29.291Z,101061.25
2022-11-02T01:07:55.839Z,101070.13
2022-11-02T01:10:23.089Z,101067.13
2022-11-02T01:12:50.039Z,101065.47
2022-11-02T01:15:16.600Z,101046.59
2022-11-02T01:17:43.077Z,101057.41
2022-11-02T01:20:10.086Z,101046.28
2022-11-02T01:22:36.571Z,101053.50
2022-11-02T01:25:03.371Z,101060.03
2022-11-02T01:27:29.915Z,101049.84
2022-11-02T01:29:56.450Z,101043.94
2022-11-02T01:32:22.962Z,101032.41
2022-11-02T01:34:49.652Z,101008.00
2022-11-02T01:37:16.251Z,101021.88
2022-11-02T01:39:42.758Z,101032.84
2022-11-02T01:42:23.129Z,101033.47
2022-11-02T01:44:49.904Z,101030.84
2022-11-02T01:47:31.676Z,101030.19
2022-11-02T01:50:02.655Z,101036.84
2022-11-02T01:52:32.647Z,101034.03
2022-11-02T01:55:07.952Z,101037.63
2022-11-02T01:57:35.763Z,101022.84
2022-11-02T02:00:10.053Z,101023.53
2022-11-02T02:02:40.145Z,101024.56
2022-11-02T02:13:06.329Z,101022.44
2022-11-02T02:15:48.160Z,101020.94
2022-11-02T02:23:44.731Z,101021.84
2022-11-02T02:26:17.041Z,101022.69
2022-11-02T02:28:47.888Z,101012.41
2022-11-02T02:31:29.035Z,101019.91
2022-11-02T02:33:58.363Z,101018.47
2022-11-02T02:36:29.481Z,101008.47
2022-11-02T02:39:10.489Z,101010.75
2022-11-02T02:41:39.457Z,101017.00
2022-11-02T02:44:09.418Z,101026.13
2022-11-02T02:46:50.959Z,101029.53
2022-11-02T02:49:22.777Z,101009.16
2022-11-02T02:51:49.753Z,101006.72
2022-11-02T02:54:23.532Z,101022.94
2022-11-02T02:56:55.027Z,101028.97
2022-11-02T02:59:32.962Z,101033.66
2022-11-02T03:01:59.782Z,101026.84
2022-11-02T03:04:26.734Z,101034.72
2022-11-02T03:06:55.036Z,101039.66
2022-11-02T03:09:24.359Z,101030.44
2022-11-02T03:12:04.626Z,101028.16
2022-11-02T03:14:43.279Z,101034.72
2022-11-02T03:17:09.972Z,101031.81
2022-11-02T03:19:39.448Z,101042.59
2022-11-02T03:22:13.078Z,101043.34
2022-11-02T03:24:47.369Z,101045.97
2022-11-02T03:27:20.624Z,101043.16
2022-11-02T03:29:54.203Z,101050.34
2022-11-02T03:32:32.801Z,101039.19
2022-11-02T03:35:01.726Z,101047.81
2022-11-02T03:37:33.625Z,101053.88
2022-11-02T03:40:18.370Z,101057.81
2022-11-02T03:42:45.876Z,101071.25
2022-11-02T03:45:12.375Z,101069.88
2022-11-02T03:47:39.722Z,101091.03
2022-11-02T03:50:08.363Z,101065.38
2022-11-02T03:52:38.210Z,101071.91
2022-11-02T03:55:08.117Z,101083.56
2022-11-02T03:57:39.404Z,101064.56
2022-11-02T04:00:10.522Z,101066.00
2022-11-02T04:02:37.943Z,101085.66
2022-11-02T04:05:04.630Z,101062.00
2022-11-02T04:07:58.368Z,101080.13
2022-11-02T04:10:26.146Z,101088.66
2022-11-02T04:13:11.279Z,101076.69
2022-11-02T04:15:37.831Z,101092.66
2022-11-02T04:18:22.637Z,101084.53
2022-11-02T04:20:50.113Z,101085.34
2022-11-02T04:23:35.460Z,101091.81
2022-11-02T04:26:01.988Z,101097.25
2022-11-02T04:28:28.521Z,101101.03
2022-11-02T04:30:55.056Z,101095.78
2022-11-02T04:33:33.779Z,101099.88
2022-11-02T04:36:01.747Z,101109.22
2022-11-02T04:38:40.964Z,101099.22
2022-11-02T04:41:30.032Z,101102.69
2022-11-02T04:43:56.645Z,101108.22
2022-11-02T04:46:24.566Z,101101.97
2022-11-02T04:48:51.232Z,101101.34
2022-11-02T04:51:18.081Z,101104.44
2022-11-02T04:53:44.664Z,101109.22
2022-11-02T04:56:11.205Z,101101.50
2022-11-02T04:58:37.725Z,101094.28
2022-11-02T05:01:05.107Z,101094.63
2022-11-02T05:03:31.670Z,101097.25
2022-11-02T05:05:58.165Z,101096.44
2022-11-02T05:08:24.740Z,101110.22
2022-11-02T05:10:54.364Z,101104.66
2022-11-02T05:13:20.849Z,101101.69
2022-11-02T05:15:47.445Z,101110.06
2022-11-02T05:18:18.647Z,101106.75
2022-11-02T05:20:50.723Z,101122.50
2022-11-02T05:23:17.313Z,101123.16
2022-11-02T05:25:43.950Z,101123.94
2022-11-02T05:28:10.456Z,101132.84
2022-11-02T05:30:36.967Z,101118.72
2022-11-02T05:33:04.256Z,101118.72
2022-11-02T05:35:31.044Z,101131.75
2022-11-02T05:37:57.666Z,101133.38
2022-11-02T05:40:24.235Z,101129.13
2022-11-02T05:42:50.833Z,101132.91
2022-11-02T05:45:21.973Z,101144.22
2022-11-02T05:47:51.105Z,101151.59
2022-11-02T05:50:17.576Z,101143.41
2022-11-02T05:52:44.038Z,101154.41
2022-11-02T05:55:10.657Z,101167.53
2022-11-02T05:57:37.184Z,101158.53
2022-11-02T06:00:04.515Z,101168.66
2022-11-02T06:02:31.311Z,101165.84
2022-11-02T06:04:57.862Z,101170.25
2022-11-02T06:07:24.452Z,101170.25
2022-11-02T06:09:50.984Z,101167.28
2022-11-02T06:12:17.519Z,101170.41
2022-11-02T06:14:44.002Z,101167.91
2022-11-02T06:17:10.635Z,101179.56
2022-11-02T06:19:37.143Z,101172.97
2022-11-02T06:22:06.766Z,101176.75
2022-11-02T06:24:33.445Z,101165.47
2022-11-02T06:26:59.975Z,101174.06
2022-11-02T06:29:26.513Z,101172.88
2022-11-02T06:31:53.195Z,101178.47
2022-11-02T06:34:23.442Z,101189.31
2022-11-02T06:36:49.900Z,101183.09
2022-11-02T06:39:16.462Z,101189.34
2022-11-02T06:41:42.943Z,101187.25
2022-11-02T06:44:09.428Z,101194.63
2022-11-02T06:46:36.241Z,101210.06
2022-11-02T06:49:02.884Z,101215.44
2022-11-02T06:51:29.885Z,101219.22
2022-11-02T06:53:56.553Z,101224.63
2022-11-02T06:56:23.083Z,101228.75
2022-11-02T06:58:50.393Z,101239.22
2022-11-02T07:01:20.110Z,101243.13
2022-11-02T07:03:47.419Z,101233.91
2022-11-02T07:06:14.803Z,101244.06
2022-11-02T07:08:42.952Z,101255.03
2022-11-02T07:11:13.111Z,101257.34
2022-11-02T07:13:40.606Z,101260.13
2022-11-02T07:16:07.531Z,101265.22
2022-11-02T07:18:35.924Z,101267.97
2022-11-02T07:21:03.249Z,101266.50
2022-11-02T07:23:30.359Z,101285.06
2022-11-02T07:25:59.473Z,101273.88
2022-11-02T07:28:29.353Z,101286.06
2022-11-02T07:30:56.070Z,101286.56
2022-11-02T07:33:22.975Z,101279.00
2022-11-02T07:35:54.478Z,101290.72
2022-11-02T07:38:22.026Z,101288.28
2022-11-02T07:40:51.809Z,101313.22
2022-11-02T07:43:18.857Z,101315.81
2022-11-02T07:45:46.119Z,101320.88
2022-11-02T07:48:13.699Z,101316.56
2022-11-02T07:50:40.790Z,101327.06
2022-11-02T07:53:08.471Z,101338.06
2022-11-02T07:55:35.675Z,101344.78
2022-11-02T07:58:04.440Z,101347.53
2022-11-02T08:00:37.405Z,101340.94
2022-11-02T08:03:05.818Z,101355.72
2022-11-02T08:05:38.519Z,101350.75
2022-11-02T08:08:06.913Z,101354.75
2022-11-02T08:10:37.211Z,101371.00
2022-11-02T08:13:05.904Z,101384.47
2022-11-02T08:15:32.653Z,101381.03
2022-11-02T08:18:03.723Z,101380.66
2022-11-02T08:20:31.453Z,101379.00
2022-11-02T08:22:58.755Z,101383.88
2022-11-02T08:25:25.389Z,101403.47
2022-11-02T08:27:52.783Z,101383.75
2022-11-02T08:30:19.934Z,101400.22
2022-11-02T08:32:46.878Z,101405.31
2022-11-02T08:35:13.988Z,101402.66
2022-11-02T08:37:40.711Z,101412.13
2022-11-02T08:40:08.462Z,101419.03
2022-11-02T08:42:35.915Z,101421.97
2022-11-02T08:45:02.843Z,101411.44
2022-11-02T08:47:30.154Z,101426.72
2022-11-02T08:49:56.918Z,101433.22
2022-11-02T08:52:24.537Z,101434.03
2022-11-02T08:54:52.129Z,101427.63
2022-11-02T08:57:19.535Z,101427.06
2022-11-02T08:59:46.758Z,101430.81
2022-11-02T09:02:13.871Z,101444.63
2022-11-02T09:04:40.758Z,101437.53
2022-11-02T09:07:08.015Z,101431.47
2022-11-02T09:09:35.580Z,101443.78
2022-11-02T09:12:02.181Z,101452.69
2022-11-02T09:14:28.739Z,101456.00
2022-11-02T09:16:55.275Z,101457.13
2022-11-02T09:19:21.802Z,101468.31
2022-11-02T09:21:49.905Z,101470.13
2022-11-02T09:24:16.363Z,101468.66
2022-11-02T09:26:42.850Z,101463.34
2022-11-02T09:29:09.625Z,101467.84
2022-11-02T09:31:36.144Z,101478.06
2022-11-02T09:34:02.721Z,101479.63
2022-11-02T09:36:29.171Z,101496.91
2022-11-02T09:38:55.630Z,101499.47
2022-11-02T09:41:48.323Z,101487.44
2022-11-02T09:44:27.605Z,101508.22
2022-11-02T09:47:40.055Z,101506.22
2022-11-02T09:49:41.589Z,101493.00
2022-11-02T09:52:11.802Z,101492.88
2022-11-02T09:54:38.261Z,101508.94
2022-11-02T09:57:07.010Z,101509.81
2022-11-02T09:59:33.661Z,101511.38
2022-11-02T10:02:11.611Z,101534.06
2022-11-02T10:04:56.722Z,101534.50
2022-11-02T10:07:25.981Z,101522.25
2022-11-02T10:09:57.864Z,101517.03
2022-11-02T10:12:28.982Z,101525.59
2022-11-02T10:14:55.544Z,101528.53
2022-11-02T10:17:24.859Z,101534.16
2022-11-02T10:19:55.087Z,101523.44
2022-11-02T10:22:24.616Z,101539.28
2022-11-02T10:24:53.314Z,101523.53
2022-11-02T10:27:27.516Z,101553.16
2022-11-02T10:30:04.551Z,101550.31
2022-11-02T10:32:32.364Z,101544.34
2022-11-02T10:35:17.411Z,101543.59
2022-11-02T10:37:49.324Z,101553.34
2022-11-02T10:40:34.203Z,101556.81
2022-11-02T10:43:28.216Z,101561.94
2022-11-02T10:46:09.847Z,101553.22
2022-11-02T10:48:39.474Z,101557.31
2022-11-02T11:51:02.814Z,101621.09
2022-11-02T11:53:29.823Z,101593.78
2022-11-02T11:55:59.987Z,101591.75
2022-11-02T11:58:27.565Z,101588.38
2022-11-02T12:15:13.796Z,101607.22
2022-11-02T12:35:35.057Z,101569.41
2022-11-02T12:58:37.497Z,101582.63
2022-11-02T13:22:47.486Z,101586.56
2022-11-02T13:48:48.455Z,101575.69
2022-11-02T13:51:23.083Z,101578.25
2022-11-02T13:53:53.365Z,101580.78
2022-11-02T13:56:25.581Z,101579.09
2022-11-02T13:59:00.990Z,101578.97
2022-11-02T14:01:28.757Z,101577.19
2022-11-02T14:04:02.761Z,101573.06
2022-11-02T14:06:30.351Z,101564.03
2022-11-02T14:08:58.703Z,101568.13
2022-11-02T15:01:06.478Z,101567.34
2022-11-02T15:03:35.140Z,101567.34
2022-11-02T15:19:51.934Z,101560.16
2022-11-02T15:22:34.134Z,101561.78
2022-11-02T15:25:05.455Z,101563.66
2022-11-02T15:27:32.717Z,101559.31
2022-11-02T15:30:00.410Z,101563.41
2022-11-02T15:32:28.896Z,101558.22
2022-11-02T15:34:55.766Z,101559.97
2022-11-02T15:37:23.797Z,101561.00
2022-11-02T15:39:51.834Z,101561.22
2022-11-02T15:45:52.868Z,101560.94
2022-11-02T15:48:26.296Z,101560.78
2022-11-02T15:51:07.902Z,101555.25
2022-11-02T15:53:56.140Z,101555.13
2022-11-02T15:56:25.554Z,101560.91
2022-11-02T15:59:04.005Z,101556.47
2022-11-02T16:01:30.759Z,101547.09
2022-11-02T16:03:59.003Z,101556.47
2022-11-02T16:06:29.785Z,101552.53
2022-11-02T16:09:00.170Z,101556.00
2022-11-02T16:11:26.942Z,101553.00
2022-11-02T16:14:08.599Z,101556.63
2022-11-02T16:16:45.883Z,101553.34
2022-11-02T16:19:21.908Z,101555.41
2022-11-02T16:21:49.524Z,101556.22
2022-11-02T16:24:16.798Z,101555.38
2022-11-02T16:26:44.999Z,101550.56
2022-11-02T16:29:12.225Z,101551.88
2022-11-02T16:31:40.931Z,101554.00
2022-11-02T16:34:20.256Z,101552.69
2022-11-02T16:36:47.742Z,101551.66
2022-11-02T16:39:16.700Z,101553.94
2022-11-02T16:41:47.343Z,101553.91
2022-11-02T16:44:20.226Z,101545.69
2022-11-02T16:46:52.259Z,101550.06
2022-11-02T16:49:19.988Z,101549.50
2022-11-02T16:51:50.617Z,101554.69
2022-11-02T16:54:27.844Z,101556.16
2022-11-02T16:56:55.827Z,101565.00
2022-11-02T16:59:23.963Z,101559.06
2022-11-02T17:01:50.803Z,101561.34
2022-11-02T17:04:19.933Z,101560.16
2022-11-02T17:06:47.830Z,101563.25
2022-11-02T17:09:23.964Z,101560.09
2022-11-02T17:11:50.902Z,101556.97
2022-11-02T17:14:19.410Z,101555.09
2022-11-02T17:17:00.871Z,101558.47
2022-11-02T17:19:47.727Z,101562.00
